Time;durP1;ratioP1;P1;durP2;ratioP2;P2;SDS_P1;SDS_P2;PMS_P1;PMS_P2;Temp;Humidity;BMP_temperature;BMP_pressure;BME280_temperature;BME280_humidity;BME280_pressure;Samples;Min_cycle;Max_cycle;Signal;HPM_P1;HPM_P2
2023/04/11 00:01:11;;;;;;;;;0.00;0.00;;;;;11.99;70.30;100830.56;5073575;28;45622;-78
2023/04/11 00:03:37;;;;;;;;;1.00;0.25;;;;;11.94;70.45;100844.03;5072882;28;46617;-78
2023/04/11 00:06:03;;;;;;;;;0.00;0.00;;;;;11.94;70.33;100840.56;5073374;28;45547;-77
2023/04/11 00:08:29;;;;;;;;;1.00;0.00;;;;;11.84;70.32;100836.94;5074464;28;45628;-77
2023/04/11 00:10:55;;;;;;;;;0.50;0.50;;;;;11.91;69.64;100862.66;5076925;28;45456;-77
2023/04/11 00:13:22;;;;;;;;;2.00;0.50;;;;;11.86;69.96;100851.66;5076733;28;45872;-76
2023/04/11 00:19:09;;;;;;;;;0.00;0.00;;;;;11.84;69.34;100857.94;5076487;28;45914;-77
2023/04/11 00:21:38;;;;;;;;;0.00;0.00;;;;;11.74;69.74;100850.75;5076899;28;45449;-77
2023/04/11 00:24:06;;;;;;;;;0.00;0.00;;;;;11.74;69.21;100858.63;5076391;28;46287;-77
2023/04/11 00:26:31;;;;;;;;;0.50;0.00;;;;;11.77;68.76;100863.63;5076301;28;46187;-77
2023/04/11 00:28:57;;;;;;;;;1.00;1.00;;;;;11.76;68.42;100861.97;5076775;28;45666;-77
2023/04/11 00:34:44;;;;;;;;;1.75;0.25;;;;;11.69;69.04;100854.63;5075737;28;45572;-78
2023/04/11 00:37:09;;;;;;;;;1.25;0.00;;;;;11.64;68.83;100854.94;5076579;28;45527;-76
2023/04/11 00:39:34;;;;;;;;;0.25;0.00;;;;;11.55;68.99;100855.59;5076622;28;45857;-76
2023/04/11 00:42:05;;;;;;;;;1.00;0.00;;;;;11.58;68.95;100863.25;5076562;28;46367;-76
2023/04/11 00:44:31;;;;;;;;;0.25;0.00;;;;;11.53;69.09;100875.88;5076025;28;46837;-77
2023/04/11 00:46:56;;;;;;;;;0.00;0.00;;;;;11.51;68.85;100879.53;5076330;28;45775;-76
2023/04/11 00:49:22;;;;;;;;;1.50;1.00;;;;;11.30;69.08;100835.50;5076318;28;45665;-78
2023/04/11 00:51:47;;;;;;;;;0.75;0.00;;;;;11.46;68.86;100865.91;5076401;28;45817;-77
2023/04/11 00:54:13;;;;;;;;;0.75;0.00;;;;;11.48;68.26;100862.25;5075696;28;45543;-79
2023/04/11 00:56:38;;;;;;;;;1.00;0.00;;;;;11.44;68.39;100870.44;5076152;28;45922;-78
2023/04/11 00:59:04;;;;;;;;;0.25;0.25;;;;;11.43;68.50;100874.84;5076122;28;45561;-78
2023/04/11 01:04:51;;;;;;;;;3.00;0.00;;;;;11.38;68.04;100886.59;5073779;28;45763;-78
2023/04/11 01:07:18;;;;;;;;;1.25;0.00;;;;;11.34;68.18;100884.19;5075877;28;46087;-78
2023/04/11 01:09:44;;;;;;;;;0.00;0.00;;;;;11.28;68.41;100871.47;5075998;28;45601;-79
2023/04/11 01:12:13;;;;;;;;;1.75;0.50;;;;;11.26;68.20;100869.94;5076046;28;45727;-79
2023/04/11 01:14:38;;;;;;;;;0.00;0.00;;;;;11.23;68.30;100870.97;5075654;28;45717;-79
2023/04/11 01:17:06;;;;;;;;;0.50;0.00;;;;;11.22;68.46;100863.22;5075809;28;45686;-79
2023/04/11 01:19:32;;;;;;;;;0.00;0.00;;;;;11.18;68.19;100888.81;5075827;28;45832;-79
2023/04/11 01:21:59;;;;;;;;;0.00;0.00;;;;;11.07;68.56;100878.22;5076257;28;45849;-78
2023/04/11 01:24:25;;;;;;;;;0.00;0.00;;;;;11.12;68.05;100885.78;5075388;28;47458;-79
2023/04/11 01:26:50;;;;;;;;;1.00;0.00;;;;;11.08;68.04;100885.16;5075403;28;46315;-77
2023/04/11 01:29:16;;;;;;;;;0.00;0.00;;;;;11.07;68.60;100899.19;5075702;28;45660;-79
2023/04/11 01:35:04;;;;;;;;;1.50;0.75;;;;;10.99;68.05;100862.19;5075109;28;45687;-77
2023/04/11 01:37:30;;;;;;;;;1.25;0.00;;;;;11.04;68.44;100882.84;5075609;28;45980;-78
2023/04/11 01:39:56;;;;;;;;;0.00;0.00;;;;;11.04;68.51;100896.78;5076211;28;45717;-76
2023/04/11 01:42:22;;;;;;;;;2.25;0.00;;;;;11.00;68.22;100894.50;5076082;28;45672;-78
2023/04/11 01:44:50;;;;;;;;;2.00;0.00;;;;;10.90;68.22;100876.75;5075278;28;45589;-78
2023/04/11 01:50:37;;;;;;;;;0.00;0.00;;;;;10.76;68.71;100876.84;5075629;28;45781;-78
2023/04/11 01:53:02;;;;;;;;;1.00;0.00;;;;;10.79;68.26;100904.66;5075505;28;45667;-78
2023/04/11 01:55:28;;;;;;;;;0.00;0.00;;;;;10.81;68.29;100916.69;5074847;28;45697;-76
2023/04/11 01:57:53;;;;;;;;;1.50;1.00;;;;;10.82;68.48;100923.63;5075173;28;45697;-77
2023/04/11 02:00:19;;;;;;;;;0.25;0.25;;;;;10.67;68.63;100876.63;5075276;28;45558;-77
2023/04/11 02:02:44;;;;;;;;;2.00;0.75;;;;;10.76;68.77;100897.81;5075361;28;45709;-78
2023/04/11 02:05:11;;;;;;;;;1.75;1.00;;;;;10.81;68.37;100914.06;5074568;28;45684;-78
2023/04/11 02:07:36;;;;;;;;;0.00;0.00;;;;;10.81;68.31;100918.47;5074990;28;46275;-77
2023/04/11 02:10:02;;;;;;;;;0.00;0.00;;;;;10.80;68.72;100922.88;5075353;28;45572;-77
2023/04/11 02:12:27;;;;;;;;;1.00;0.00;;;;;10.78;68.44;100926.56;5075468;28;45684;-77
2023/04/11 02:14:53;;;;;;;;;0.00;0.00;;;;;10.73;68.79;100918.16;5074818;28;46140;-74
2023/04/11 02:20:40;;;;;;;;;0.00;0.00;;;;;10.68;68.85;100915.84;5074512;28;45861;-77
2023/04/11 02:23:05;;;;;;;;;0.50;0.00;;;;;10.69;69.05;100924.56;5075071;28;45617;-77
2023/04/11 02:25:31;;;;;;;;;1.75;0.25;;;;;10.75;68.70;100939.84;5074415;28;46746;-78
2023/04/11 02:27:56;;;;;;;;;0.50;0.00;;;;;10.78;68.92;100934.41;5074893;28;46156;-78
2023/04/11 02:30:22;;;;;;;;;0.00;0.00;;;;;10.77;68.99;100917.84;5074687;28;45505;-77
2023/04/11 02:36:11;;;;;;;;;2.75;1.00;;;;;10.67;68.71;100913.31;5074538;28;45539;-78
2023/04/11 02:38:36;;;;;;;;;1.75;0.50;;;;;10.79;68.99;100934.31;5074899;28;45979;-77
2023/04/11 02:41:02;;;;;;;;;0.00;0.00;;;;;10.76;68.68;100913.53;5074587;28;45678;-77
2023/04/11 02:43:28;;;;;;;;;1.50;0.50;;;;;10.77;68.97;100930.94;5074316;28;45842;-78
2023/04/11 02:45:53;;;;;;;;;0.00;0.00;;;;;10.80;68.65;100933.34;5074371;28;45602;-77
2023/04/11 02:48:19;;;;;;;;;2.25;0.25;;;;;10.80;69.15;100951.69;5074377;28;45560;-77
2023/04/11 02:50:44;;;;;;;;;0.00;0.00;;;;;10.71;69.29;100944.47;5074171;28;45529;-79
2023/04/11 02:53:10;;;;;;;;;0.75;0.00;;;;;10.78;69.46;100929.16;5074040;28;45654;-76
2023/04/11 02:55:35;;;;;;;;;0.00;0.00;;;;;10.76;69.17;100950.22;5074316;28;46072;-76
2023/04/11 02:58:01;;;;;;;;;0.00;0.00;;;;;10.73;69.15;100947.00;5074321;28;45951;-77
2023/04/11 03:00:26;;;;;;;;;1.00;0.00;;;;;10.72;69.43;100954.00;5074385;28;45723;-80
2023/04/11 03:06:13;;;;;;;;;1.50;0.25;;;;;10.74;69.67;100954.72;5071964;28;45737;-78
2023/04/11 03:08:38;;;;;;;;;0.25;0.00;;;;;10.64;69.44;100944.94;5074229;28;45689;-78
2023/04/11 03:11:05;;;;;;;;;1.00;0.00;;;;;10.52;69.25;100936.16;5074205;28;45610;-78
2023/04/11 03:13:30;;;;;;;;;0.00;0.00;;;;;10.68;69.53;100962.19;5074047;28;45712;-78
2023/04/11 03:15:56;;;;;;;;;0.00;0.00;;;;;10.67;69.63;100961.34;5073750;28;46433;-78
2023/04/11 03:21:43;;;;;;;;;2.25;1.00;;;;;10.59;69.55;100953.13;5074058;28;45538;-77
2023/04/11 03:24:11;;;;;;;;;1.00;0.50;;;;;10.63;69.67;100962.47;5074096;28;45710;-78
2023/04/11 03:26:36;;;;;;;;;0.00;0.00;;;;;10.60;70.03;100969.69;5073730;28;46587;-77
2023/04/11 03:29:02;;;;;;;;;1.00;0.00;;;;;10.62;69.92;100971.28;5073930;28;45682;-77
2023/04/11 03:31:29;;;;;;;;;0.50;0.50;;;;;10.66;69.83;100982.38;5073824;28;45586;-79
2023/04/11 03:33:54;;;;;;;;;3.00;1.00;;;;;10.44;69.78;100952.34;5073615;28;45617;-81
2023/04/11 03:36:21;;;;;;;;;0.25;0.00;;;;;10.67;69.90;100963.94;5074069;28;46444;-79
2023/04/11 03:38:46;;;;;;;;;1.75;1.00;;;;;10.61;69.83;100956.50;5073858;28;46031;-80
2023/04/11 03:41:12;;;;;;;;;2.00;1.00;;;;;10.70;69.73;100971.59;5073996;28;45555;-78
2023/04/11 03:43:37;;;;;;;;;0.25;0.00;;;;;10.61;69.81;100963.50;5075338;28;45629;-79
2023/04/11 03:46:03;;;;;;;;;1.00;1.00;;;;;10.56;69.74;100960.34;5077995;28;46424;-78
2023/04/11 03:51:50;;;;;;;;;0.00;0.00;;;;;10.55;70.18;100974.38;5077421;28;45559;-79
2023/04/11 03:54:16;;;;;;;;;0.00;0.00;;;;;10.58;69.99;100982.06;5077188;28;45623;-78
2023/04/11 03:56:42;;;;;;;;;1.00;0.75;;;;;10.47;70.02;100974.91;5077005;28;46416;-79
2023/04/11 03:59:07;;;;;;;;;3.75;1.00;;;;;10.43;70.26;100965.53;5077090;28;45479;-78
2023/04/11 04:01:32;;;;;;;;;2.00;1.00;;;;;10.50;70.49;100975.53;5077284;28;45627;-78
2023/04/11 04:07:23;;;;;;;;;2.50;0.00;;;;;10.41;70.49;100959.56;5075171;28;46051;-78
2023/04/11 04:09:49;;;;;;;;;1.50;1.00;;;;;10.45;70.42;100988.09;5076996;28;46210;-77
2023/04/11 04:12:16;;;;;;;;;1.75;0.00;;;;;10.46;70.37;100975.84;5058491;28;45586;-77
2023/04/11 04:14:42;;;;;;;;;1.75;0.25;;;;;10.45;70.34;100968.91;5076897;28;45748;-78
2023/04/11 04:17:07;;;;;;;;;1.00;1.00;;;;;10.42;70.51;100983.03;5076728;28;45584;-78
2023/04/11 04:19:33;;;;;;;;;1.25;1.00;;;;;10.41;70.37;100976.13;5076695;28;46435;-78
2023/04/11 04:21:58;;;;;;;;;0.75;0.75;;;;;10.41;70.54;100976.13;5076908;28;45669;-78
2023/04/11 04:24:26;;;;;;;;;1.50;1.00;;;;;10.44;70.83;100975.06;5076633;28;45618;-77
2023/04/11 04:26:52;;;;;;;;;3.00;0.00;;;;;10.43;70.41;100983.88;5076796;28;45615;-79
2023/04/11 04:29:18;;;;;;;;;1.25;0.00;;;;;10.42;70.50;100977.78;5076895;28;46410;-78
2023/04/11 04:31:49;;;;;;;;;2.50;1.00;;;;;10.37;70.42;100971.16;5076585;28;45511;-75
2023/04/11 04:37:44;;;;;;;;;0.50;0.00;;;;;10.40;70.54;100979.69;5076257;28;45681;-77
2023/04/11 04:40:12;;;;;;;;;1.00;0.00;;;;;10.41;70.39;100981.38;5076521;28;46197;-78
2023/04/11 04:42:40;;;;;;;;;1.50;0.00;;;;;10.33;70.59;100957.44;5076604;28;45750;-78
2023/04/11 04:45:07;;;;;;;;;1.50;0.00;;;;;10.37;70.55;100977.25;5076195;28;45539;-80
2023/04/11 04:47:35;;;;;;;;;2.00;0.00;;;;;10.39;70.70;100974.53;5076759;28;45578;-77
2023/04/11 04:50:00;;;;;;;;;3.25;1.75;;;;;10.42;70.84;100984.81;5076505;28;46115;-77
2023/04/11 04:52:27;;;;;;;;;0.00;0.00;;;;;10.41;70.62;100978.75;5076731;28;45829;-78
2023/04/11 04:54:56;;;;;;;;;1.00;1.00;;;;;10.44;70.76;100980.31;5076186;28;45706;-76
2023/04/11 04:57:23;;;;;;;;;1.00;0.00;;;;;10.47;70.39;100995.84;5076415;28;46887;-78
2023/04/11 04:59:48;;;;;;;;;1.00;0.75;;;;;10.27;70.60;100964.84;5076033;28;45980;-79
2023/04/11 05:02:15;;;;;;;;;0.50;0.00;;;;;10.46;70.72;100994.16;5076210;28;45744;-78
2023/04/11 05:08:29;;;;;;;;;0.50;0.50;;;;;10.44;70.73;100996.88;5074952;27;45721;-78
2023/04/11 05:10:54;;;;;;;;;0.00;0.00;;;;;10.45;70.64;101009.03;5076547;28;45679;-77
2023/04/11 05:13:20;;;;;;;;;3.00;0.00;;;;;10.46;70.71;101005.50;5076075;28;45606;-76
2023/04/11 05:15:49;;;;;;;;;2.00;0.50;;;;;10.48;70.99;101013.22;5076146;28;45766;-79
2023/04/11 05:18:17;;;;;;;;;0.50;0.00;;;;;10.44;70.88;101007.34;5075865;28;46305;-77
2023/04/11 05:20:42;;;;;;;;;0.00;0.00;;;;;10.46;70.76;101015.97;5075869;28;45790;-79
2023/04/11 05:23:07;;;;;;;;;2.75;0.75;;;;;10.46;70.77;101015.13;5075664;28;45681;-77
2023/04/11 05:25:33;;;;;;;;;2.00;1.00;;;;;10.48;70.67;101024.53;5076308;28;45610;-78
2023/04/11 05:27:58;;;;;;;;;2.25;0.75;;;;;10.49;70.80;101022.78;5076560;28;46716;-77
2023/04/11 05:30:23;;;;;;;;;0.00;0.00;;;;;10.51;70.57;101020.91;5076007;28;45697;-78
2023/04/11 05:32:49;;;;;;;;;1.00;0.00;;;;;10.49;70.65;101018.38;5075932;28;45819;-80
2023/04/11 05:35:14;;;;;;;;;0.00;0.00;;;;;10.37;70.76;101000.81;5075941;28;45719;-79
2023/04/11 05:37:41;;;;;;;;;2.75;1.00;;;;;10.47;70.88;101014.19;5074623;28;47662;-80
2023/04/11 05:40:08;;;;;;;;;0.00;0.00;;;;;10.51;70.73;101020.91;5075551;28;46199;-77
2023/04/11 05:42:34;;;;;;;;;2.00;0.75;;;;;10.55;70.64;101026.78;5075261;28;45720;-79
2023/04/11 05:44:59;;;;;;;;;0.75;0.00;;;;;10.58;70.77;101016.13;5075546;28;45660;-80
2023/04/11 05:47:25;;;;;;;;;1.25;0.00;;;;;10.59;70.62;101021.22;5079541;28;45587;-79
2023/04/11 05:53:12;;;;;;;;;1.75;0.50;;;;;10.59;70.21;101023.84;5075911;28;45706;-78
2023/04/11 05:55:37;;;;;;;;;1.00;0.00;;;;;10.62;70.75;101023.69;5075830;28;45619;-74
2023/04/11 05:58:03;;;;;;;;;1.00;0.25;;;;;10.60;70.49;101016.84;5075216;28;45538;-73
2023/04/11 06:00:30;;;;;;;;;1.75;1.00;;;;;10.63;70.70;101045.47;5056513;28;46869;-74
2023/04/11 06:02:56;;;;;;;;;2.00;1.00;;;;;10.63;70.56;101033.22;5074998;28;45697;-73
2023/04/11 06:08:43;;;;;;;;;1.25;0.75;;;;;10.69;70.53;101032.00;5073392;27;45512;-73
2023/04/11 06:11:10;;;;;;;;;2.00;1.00;;;;;10.65;70.44;101025.25;5074740;28;46106;-73
2023/04/11 06:13:35;;;;;;;;;1.00;0.00;;;;;10.58;70.29;101034.47;5074504;28;45775;-74
2023/04/11 06:16:01;;;;;;;;;0.00;0.00;;;;;10.58;70.21;101040.50;5074848;28;45805;-75
2023/04/11 06:18:26;;;;;;;;;1.00;1.00;;;;;10.64;70.44;101057.63;5074473;28;47133;-73
2023/04/11 06:20:51;;;;;;;;;1.00;1.00;;;;;10.63;70.57;101050.72;5074937;28;46356;-75
2023/04/11 06:23:17;;;;;;;;;0.00;0.00;;;;;10.63;70.38;101054.19;5074251;28;45742;-74
2023/04/11 06:25:42;;;;;;;;;1.00;0.00;;;;;10.64;70.25;101055.00;5074911;28;45587;-75
2023/04/11 06:28:07;;;;;;;;;1.00;0.75;;;;;10.63;70.36;101062.03;5074491;28;47070;-77
2023/04/11 06:30:33;;;;;;;;;1.75;1.00;;;;;10.63;70.60;101058.59;5074403;28;46212;-76
2023/04/11 06:32:58;;;;;;;;;1.00;1.00;;;;;10.61;70.44;101058.66;5055913;28;45788;-75
2023/04/11 06:38:45;;;;;;;;;1.00;1.00;;;;;10.58;70.18;101061.47;5074284;28;46075;-77
2023/04/11 06:41:11;;;;;;;;;0.00;0.00;;;;;10.64;70.24;101049.75;5074606;28;45978;-75
2023/04/11 06:43:36;;;;;;;;;1.50;1.00;;;;;10.66;70.33;101051.34;5073899;28;45802;-74
2023/04/11 06:46:01;;;;;;;;;1.75;1.75;;;;;10.67;70.05;101060.06;5074744;28;45527;-76
2023/04/11 06:48:27;;;;;;;;;2.50;0.50;;;;;10.63;70.01;101062.03;5055919;28;47123;-76
2023/04/11 06:54:15;;;;;;;;;1.00;0.00;;;;;10.69;70.07;101069.47;5073912;28;45575;-76
2023/04/11 06:56:41;;;;;;;;;1.00;1.00;;;;;10.71;70.12;101072.88;5074490;28;45654;-75
2023/04/11 06:59:06;;;;;;;;;2.50;0.75;;;;;10.71;70.18;101077.25;5073991;28;47118;-75
2023/04/11 07:01:36;;;;;;;;;1.25;0.25;;;;;10.71;70.15;101082.50;5074141;28;45938;-75
2023/04/11 07:04:05;;;;;;;;;4.00;0.75;;;;;10.70;70.06;101086.91;5074103;28;45836;-75
2023/04/11 07:06:31;;;;;;;;;2.75;1.00;;;;;10.70;70.28;101096.53;5074055;28;45773;-76
2023/04/11 07:08:57;;;;;;;;;1.00;1.00;;;;;10.70;70.33;101091.28;5073959;28;45662;-76
2023/04/11 07:11:22;;;;;;;;;1.00;1.00;;;;;10.70;70.43;101100.00;5072570;28;47447;-77
2023/04/11 07:13:48;;;;;;;;;2.00;0.00;;;;;10.72;70.38;101087.66;5074359;28;45721;-77
2023/04/11 07:16:14;;;;;;;;;1.00;1.00;;;;;10.79;70.24;101104.69;5076542;28;45608;-76
2023/04/11 07:18:40;;;;;;;;;1.50;1.25;;;;;10.75;70.60;101091.84;5075456;28;46520;-76
2023/04/11 07:24:29;;;;;;;;;2.00;1.00;;;;;10.88;70.31;101090.97;5075572;28;45792;-75
2023/04/11 07:26:57;;;;;;;;;3.50;2.00;;;;;10.96;70.04;101097.50;5057335;28;45600;-77
2023/04/11 07:29:22;;;;;;;;;0.00;0.00;;;;;10.97;69.67;101086.06;5073996;28;46923;-76
2023/04/11 07:31:48;;;;;;;;;2.50;1.75;;;;;11.00;69.85;101081.47;5073787;28;46225;-76
2023/04/11 07:34:14;;;;;;;;;3.25;1.50;;;;;11.10;69.93;101071.22;5074586;28;45558;-76
2023/04/11 07:36:40;;;;;;;;;1.75;1.00;;;;;11.17;69.59;101078.59;5073726;28;45461;-74
2023/04/11 07:39:08;;;;;;;;;3.75;2.00;;;;;11.22;69.44;101081.75;5073316;28;46918;-74
2023/04/11 07:41:36;;;;;;;;;1.00;0.00;;;;;11.26;69.37;101088.47;5073347;28;47116;-76
2023/04/11 07:44:03;;;;;;;;;2.00;1.00;;;;;11.32;69.48;101090.69;5072949;28;45633;-74
2023/04/11 07:46:29;;;;;;;;;2.50;2.00;;;;;11.35;69.31;101082.59;5073867;28;45628;-75
2023/04/11 07:48:54;;;;;;;;;2.75;0.00;;;;;11.45;69.27;101084.59;5073334;28;47384;-74
2023/04/11 07:54:41;;;;;;;;;1.25;0.25;;;;;11.60;68.86;101087.06;5073102;28;45790;-73
2023/04/11 07:57:06;;;;;;;;;2.00;2.00;;;;;11.63;68.74;101065.84;5073323;28;45607;-74
2023/04/11 07:59:32;;;;;;;;;2.50;2.50;;;;;11.67;68.57;101072.56;5073190;28;46893;-74
2023/04/11 08:01:59;;;;;;;;;1.50;1.00;;;;;11.72;68.58;101066.97;5054839;28;47695;-72
2023/04/11 08:04:25;;;;;;;;;2.50;2.00;;;;;11.72;68.43;101066.97;5073078;28;45719;-75
2023/04/11 08:10:12;;;;;;;;;2.25;1.00;;;;;11.85;68.10;101095.91;5071055;28;45996;-73
2023/04/11 08:12:37;;;;;;;;;1.25;1.00;;;;;11.84;67.63;101094.22;5072740;28;45947;-73
2023/04/11 08:15:03;;;;;;;;;1.75;0.25;;;;;11.85;67.90;101093.28;5072968;28;46119;-73
2023/04/11 08:17:29;;;;;;;;;2.75;1.25;;;;;11.89;67.88;101094.75;5073312;28;45612;-73
2023/04/11 08:19:56;;;;;;;;;2.00;1.00;;;;;11.93;67.62;101106.75;5072947;28;45531;-74
2023/04/11 08:22:21;;;;;;;;;1.50;1.50;;;;;11.99;67.62;101112.38;5073098;28;45669;-72
2023/04/11 08:24:46;;;;;;;;;0.50;0.50;;;;;12.05;67.68;101100.63;5073072;28;45547;-73
2023/04/11 08:27:12;;;;;;;;;2.00;0.00;;;;;12.05;66.79;101084.84;5073546;28;45627;-73
2023/04/11 08:29:37;;;;;;;;;1.75;1.50;;;;;12.14;66.62;101081.63;5074390;28;47456;-75
2023/04/11 08:32:03;;;;;;;;;1.75;1.00;;;;;12.13;66.48;101070.25;5076576;28;46073;-75
2023/04/11 08:34:31;;;;;;;;;2.00;1.00;;;;;12.11;66.25;101080.03;5076137;28;45593;-73
2023/04/11 08:40:18;;;;;;;;;2.75;1.25;;;;;12.16;66.23;101095.47;5076158;28;45960;-76
2023/04/11 08:42:44;;;;;;;;;1.25;0.50;;;;;12.22;65.95;101094.19;5076108;28;46197;-75
2023/04/11 08:45:10;;;;;;;;;1.00;0.00;;;;;12.17;66.33;101087.47;5076346;28;45654;-74
2023/04/11 08:47:36;;;;;;;;;2.00;1.25;;;;;12.16;65.95;101087.56;5076491;28;45701;-75
2023/04/11 08:50:04;;;;;;;;;2.25;2.00;;;;;12.12;65.99;101080.88;5057561;28;47276;-75
2023/04/11 08:55:51;;;;;;;;;5.50;0.75;;;;;12.20;65.91;101108.25;5075956;28;45750;-75
2023/04/11 08:58:17;;;;;;;;;2.00;1.00;;;;;12.26;65.98;101104.38;5076181;28;45759;-74
2023/04/11 09:00:43;;;;;;;;;3.75;1.75;;;;;12.29;65.70;101093.66;5075772;28;46815;-75
2023/04/11 09:03:10;;;;;;;;;1.00;1.00;;;;;12.38;65.43;101107.94;5075313;28;46991;-73
2023/04/11 09:05:41;;;;;;;;;4.50;1.00;;;;;12.43;65.43;101090.88;5076398;28;45748;-81
2023/04/11 09:08:08;;;;;;;;;2.00;1.00;;;;;12.47;64.37;101092.34;5076165;28;45690;-75
2023/04/11 09:10:35;;;;;;;;;3.50;1.25;;;;;12.47;64.81;101091.53;5075287;28;47450;-74
2023/04/11 09:13:19;;;;;;;;;2.75;1.00;;;;;12.53;64.69;101091.06;5075241;28;46518;-74
2023/04/11 09:15:44;;;;;;;;;1.25;1.00;;;;;12.51;64.59;101075.44;5075574;28;45823;-74
2023/04/11 09:18:10;;;;;;;;;2.50;1.00;;;;;12.63;64.26;101086.84;5075659;28;45511;-74
2023/04/11 09:20:35;;;;;;;;;4.00;1.00;;;;;12.66;64.28;101081.38;5075575;28;46633;-74
2023/04/11 09:23:01;;;;;;;;;2.00;1.75;;;;;12.76;63.90;101085.00;5075045;28;46463;-74
2023/04/11 09:25:27;;;;;;;;;1.00;1.00;;;;;12.83;63.74;101080.16;5075602;28;45697;-74
2023/04/11 09:28:07;;;;;;;;;1.00;1.00;;;;;12.92;63.09;101096.09;5075549;28;45905;-75
2023/04/11 09:30:33;;;;;;;;;3.50;1.25;;;;;12.96;63.23;101080.91;5056873;28;48577;-75
2023/04/11 09:33:18;;;;;;;;;1.25;0.00;;;;;13.09;63.20;101086.13;5075157;28;46098;-73
2023/04/11 09:35:46;;;;;;;;;3.50;1.00;;;;;13.16;62.70;101085.59;5056997;28;45541;-74
2023/04/11 09:38:11;;;;;;;;;1.00;1.00;;;;;13.22;62.71;101093.03;5075658;28;45708;-73
2023/04/11 09:40:41;;;;;;;;;2.00;1.00;;;;;13.25;61.79;101081.44;5074960;28;46437;-76
2023/04/11 09:43:07;;;;;;;;;4.00;1.00;;;;;13.34;61.48;101096.53;5074767;28;47230;-73
2023/04/11 09:45:32;;;;;;;;;1.50;1.00;;;;;13.32;60.92;101090.56;5075340;28;45642;-73
2023/04/11 09:47:58;;;;;;;;;1.50;0.50;;;;;13.34;60.34;101094.72;5075343;28;45469;-74
2023/04/11 09:50:25;;;;;;;;;2.75;1.00;;;;;13.35;60.63;101092.94;5074902;28;47996;-74
2023/04/11 09:56:13;;;;;;;;;2.00;1.50;;;;;13.32;60.04;101080.03;5075100;28;45769;-74
2023/04/11 09:58:40;;;;;;;;;0.50;0.50;;;;;13.35;60.30;101080.63;5075221;28;45779;-74
2023/04/11 10:01:08;;;;;;;;;2.00;1.00;;;;;13.37;60.85;101085.78;5074965;28;46663;-75
2023/04/11 10:03:35;;;;;;;;;1.75;0.75;;;;;13.43;60.86;101087.97;5074507;28;47123;-75
2023/04/11 10:12:32;;;;;;;;;1.75;0.75;;;;;13.49;59.78;101089.28;5074299;28;46126;-73
2023/04/11 10:15:06;;;;;;;;;1.50;1.50;;;;;13.50;60.43;101081.25;5075375;28;45644;-74
2023/04/11 10:17:32;;;;;;;;;2.50;0.50;;;;;13.52;60.33;101087.25;5076303;28;45744;-73
2023/04/11 10:19:57;;;;;;;;;1.00;1.00;;;;;13.62;60.29;101076.84;5076578;28;45499;-75
2023/04/11 10:25:52;;;;;;;;;2.00;1.00;;;;;13.76;60.84;101072.22;5075020;28;45955;-73
2023/04/11 10:28:32;;;;;;;;;2.00;1.00;;;;;13.82;60.36;101057.72;5057180;28;46293;-75
2023/04/11 10:31:16;;;;;;;;;2.00;1.50;;;;;13.90;59.93;101068.53;5056608;28;45751;-75
2023/04/11 10:34:14;;;;;;;;;2.25;1.00;;;;;13.94;59.44;101063.84;5074932;28;45575;-74
2023/04/11 10:40:50;;;;;;;;;1.50;0.50;;;;;13.92;59.43;101071.03;4992469;28;45938;-75
2023/04/11 10:43:20;;;;;;;;;0.75;0.00;;;;;13.96;59.43;101067.22;4992687;28;45928;-74
2023/04/11 10:46:18;;;;;;;;;2.25;1.25;;;;;14.00;59.55;101040.50;4992450;28;46522;-74
2023/04/11 10:49:01;;;;;;;;;2.50;1.25;;;;;14.14;59.66;101047.34;4992517;28;47043;-74
2023/04/11 10:51:28;;;;;;;;;2.00;1.00;;;;;14.21;59.29;101051.13;4991918;28;45844;-74
2023/04/11 10:57:16;;;;;;;;;2.00;1.00;;;;;14.48;58.24;101054.25;4992480;28;45680;-73
2023/04/11 10:59:41;;;;;;;;;3.00;2.00;;;;;14.53;57.40;101043.31;4992674;28;45954;-75
2023/04/11 11:02:08;;;;;;;;;2.00;1.33;;;;;14.58;57.43;101046.44;4992705;28;45765;-75
2023/04/11 11:04:35;;;;;;;;;1.50;1.00;;;;;14.67;57.73;101043.06;4991977;28;45638;-75
2023/04/11 11:07:03;;;;;;;;;1.25;1.00;;;;;14.69;57.61;101039.31;4991967;28;46648;-74
2023/04/11 11:09:30;;;;;;;;;2.25;2.00;;;;;14.77;56.95;101027.31;4975393;28;46181;-74
2023/04/11 11:12:06;;;;;;;;;2.50;1.00;;;;;14.78;56.38;101011.38;4993807;28;45772;-74
2023/04/11 11:14:31;;;;;;;;;2.00;1.00;;;;;14.81;56.84;101010.28;5053350;28;46056;-74
2023/04/11 11:16:57;;;;;;;;;1.75;1.75;;;;;14.84;56.65;100999.47;5053297;28;46405;-74
2023/04/11 11:19:22;;;;;;;;;3.00;1.75;;;;;14.90;56.45;101012.97;5035637;28;45760;-73
2023/04/11 11:21:50;;;;;;;;;0.00;0.00;;;;;14.96;55.81;101006.38;5053654;28;45650;-75
2023/04/11 11:27:37;;;;;;;;;1.00;1.00;;;;;14.99;56.26;100979.75;5053479;28;45710;-74
2023/04/11 11:30:10;;;;;;;;;5.75;2.00;;;;;15.05;56.24;100988.00;5053501;28;45636;-75
2023/04/11 11:32:35;;;;;;;;;2.75;0.00;;;;;15.14;56.64;100994.28;5053183;28;45536;-75
2023/04/11 11:35:12;;;;;;;;;1.50;1.00;;;;;15.22;56.13;100986.56;5053344;28;45710;-75
2023/04/11 11:37:37;;;;;;;;;1.00;1.00;;;;;15.27;56.01;100984.38;5053067;28;45525;-74
2023/04/11 11:40:12;;;;;;;;;3.00;1.00;;;;;15.24;54.97;100987.25;5053118;28;45738;-75
2023/04/11 11:42:38;;;;;;;;;2.00;1.75;;;;;15.28;55.27;100980.75;5052780;28;45779;-74
2023/04/11 11:45:20;;;;;;;;;0.75;0.00;;;;;15.33;56.29;100983.84;5053126;28;45662;-74
2023/04/11 11:47:48;;;;;;;;;0.50;0.50;;;;;15.40;55.89;100976.22;5053100;28;46639;-74
2023/04/11 11:50:28;;;;;;;;;1.00;1.00;;;;;15.49;55.30;100972.81;5052923;28;47473;-74
2023/04/11 11:52:55;;;;;;;;;1.75;1.00;;;;;15.51;54.65;100973.50;5052410;28;45449;-75
2023/04/11 11:55:21;;;;;;;;;0.50;0.00;;;;;15.52;54.47;100969.94;5053377;28;45603;-74
2023/04/11 11:57:48;;;;;;;;;1.00;1.00;;;;;15.56;53.88;100973.16;5053196;28;45583;-74
2023/04/11 12:00:22;;;;;;;;;1.00;0.75;;;;;15.59;53.67;100972.91;5052718;28;45947;-74
2023/04/11 12:02:50;;;;;;;;;2.50;1.00;;;;;15.54;53.73;100965.38;5052684;28;45682;-74
2023/04/11 12:05:16;;;;;;;;;9.25;3.00;;;;;15.61;54.16;100978.88;5055585;28;45517;-74
2023/04/11 12:07:41;;;;;;;;;3.25;0.00;;;;;15.58;53.64;100977.34;5056186;28;46268;-74
2023/04/11 12:10:10;;;;;;;;;1.00;1.00;;;;;15.66;52.87;100988.06;5056438;28;46056;-73
2023/04/11 12:12:40;;;;;;;;;1.50;0.00;;;;;15.69;52.84;100986.97;5073511;28;45607;-75
2023/04/11 12:15:17;;;;;;;;;0.00;0.00;;;;;15.68;51.88;100985.31;5077166;28;45465;-74
2023/04/11 12:17:51;;;;;;;;;1.75;1.00;;;;;15.61;52.26;100973.59;5058360;28;47531;-74
2023/04/11 12:20:21;;;;;;;;;1.00;1.00;;;;;15.54;53.17;100973.28;5076348;28;47190;-74
2023/04/11 12:22:47;;;;;;;;;1.00;1.00;;;;;15.58;53.66;100974.69;5076249;28;45669;-74
2023/04/11 12:25:13;;;;;;;;;2.50;1.75;;;;;15.61;53.22;100976.22;5076606;28;45746;-74
2023/04/11 12:27:41;;;;;;;;;1.75;1.75;;;;;15.64;53.34;100974.19;5076352;28;46719;-74
2023/04/11 12:30:08;;;;;;;;;2.50;2.50;;;;;15.64;53.27;100965.41;5076179;28;46312;-74
2023/04/11 12:32:33;;;;;;;;;2.00;1.00;;;;;15.73;52.67;100989.22;5076264;28;45584;-74
2023/04/11 12:35:03;;;;;;;;;0.50;0.50;;;;;15.72;52.30;100990.19;5076754;28;45569;-74
2023/04/11 12:37:29;;;;;;;;;0.75;0.50;;;;;15.58;53.54;100977.34;5076229;28;46786;-73
2023/04/11 12:43:15;;;;;;;;;1.50;1.00;;;;;15.48;52.20;100990.47;5075932;28;45617;-74
2023/04/11 12:45:41;;;;;;;;;1.00;1.00;;;;;15.42;52.47;100987.50;5058064;28;45700;-74
2023/04/11 12:48:07;;;;;;;;;0.75;0.00;;;;;15.35;51.96;100966.06;5076359;28;45652;-74
2023/04/11 12:50:32;;;;;;;;;1.25;1.00;;;;;15.40;51.83;100974.44;5058195;28;45913;-74
2023/04/11 12:52:57;;;;;;;;;1.00;1.00;;;;;15.42;52.05;100964.59;5076140;28;45563;-76
2023/04/11 12:58:45;;;;;;;;;0.00;0.00;;;;;15.46;51.64;100944.03;5075998;28;45497;-74
2023/04/11 13:01:10;;;;;;;;;2.00;1.00;;;;;15.54;51.89;100949.53;5075621;28;46331;-74
2023/04/11 13:03:37;;;;;;;;;1.00;0.00;;;;;15.53;52.25;100946.03;5075382;28;45721;-74
2023/04/11 13:06:02;;;;;;;;;1.25;1.00;;;;;15.59;51.86;100959.69;5076188;28;45567;-75
2023/04/11 13:08:27;;;;;;;;;1.00;1.00;;;;;15.57;51.74;100957.19;5075600;28;46500;-74